Time;durP1;ratioP1;P1;durP2;ratioP2;P2;SDS_P1;SDS_P2;PMS_P1;PMS_P2;Temp;Humidity;BMP_temperature;BMP_pressure;BME280_temperature;BME280_humidity;BME280_pressure;Samples;Min_cycle;Max_cycle;Signal;HPM_P1;HPM_P2
2022/03/12 00:03:54;;;;;;;0.00;0.00;;;;;;;2.78;41.89;102100.06;10454652;28;20498;-70
2022/03/12 00:08:55;;;;;;;0.10;0.10;;;;;;;2.75;40.95;102087.06;10454605;28;20059;-70
2022/03/12 00:13:59;;;;;;;0.00;0.00;;;;;;;2.68;41.14;102095.28;10453719;28;20388;-71
2022/03/12 00:19:02;;;;;;;0.00;0.00;;;;;;;2.71;41.37;102100.38;10466897;28;20475;-71
2022/03/12 00:24:05;;;;;;;0.00;0.00;;;;;;;2.61;42.49;102108.78;10457816;28;20365;-70
2022/03/12 00:29:06;;;;;;;0.03;0.03;;;;;;;2.55;42.10;102103.84;10491103;28;20024;-70
2022/03/12 00:34:06;;;;;;;0.00;0.00;;;;;;;2.45;42.72;102088.53;10494779;28;20146;-71
2022/03/12 00:39:09;;;;;;;0.00;0.00;;;;;;;2.37;42.11;102084.56;10470013;28;20108;-71
2022/03/12 00:44:17;;;;;;;0.10;0.10;;;;;;;2.31;42.45;102083.09;10476285;28;20271;-70
2022/03/12 00:49:17;;;;;;;0.00;0.00;;;;;;;2.25;42.40;102084.25;10494048;28;20016;-70
2022/03/12 00:54:18;;;;;;;0.00;0.00;;;;;;;2.15;43.32;102080.38;10489187;28;20025;-71
2022/03/12 00:59:18;;;;;;;0.10;0.10;;;;;;;2.13;43.18;102076.09;10491520;28;20043;-70
2022/03/12 01:04:18;;;;;;;0.00;0.00;;;;;;;2.04;43.37;102069.50;10493337;28;20066;-70
2022/03/12 01:09:19;;;;;;;0.00;0.00;;;;;;;1.98;43.75;102070.66;10493191;28;20111;-70
2022/03/12 01:14:19;;;;;;;0.00;0.00;;;;;;;1.94;43.68;102078.75;10493147;28;20077;-71
2022/03/12 01:19:19;;;;;;;0.00;0.00;;;;;;;1.85;44.38;102076.56;10466594;28;20028;-70
2022/03/12 01:24:20;;;;;;;0.00;0.00;;;;;;;1.82;44.44;102082.81;10451632;28;20016;-70
2022/03/12 01:29:21;;;;;;;0.00;0.00;;;;;;;1.75;44.36;102082.25;10469891;28;20025;-70
2022/03/12 01:34:22;;;;;;;0.10;0.10;;;;;;;1.68;44.27;102082.59;10465584;28;20045;-71
2022/03/12 01:39:22;;;;;;;0.08;0.08;;;;;;;1.59;45.59;102076.00;10480581;28;20039;-70
2022/03/12 01:44:23;;;;;;;0.00;0.00;;;;;;;1.59;44.68;102091.75;10492033;28;20020;-70
2022/03/12 01:49:23;;;;;;;0.03;0.03;;;;;;;1.54;45.36;102089.34;10491685;28;20024;-71
2022/03/12 01:54:27;;;;;;;0.00;0.00;;;;;;;1.52;45.68;102085.94;10468206;28;20013;-70
2022/03/12 01:59:28;;;;;;;0.10;0.10;;;;;;;1.43;46.35;102080.25;10480015;28;20475;-71
2022/03/12 02:04:29;;;;;;;0.10;0.10;;;;;;;1.42;46.41;102078.53;10453003;28;20025;-71
2022/03/12 02:09:30;;;;;;;0.00;0.00;;;;;;;1.38;46.37;102067.31;10469264;28;21055;-71
2022/03/12 02:14:30;;;;;;;0.03;0.03;;;;;;;1.40;46.34;102060.25;10459712;28;20077;-70
2022/03/12 02:19:32;;;;;;;0.00;0.00;;;;;;;1.38;46.27;102061.22;10490748;28;20051;-70
2022/03/12 02:24:34;;;;;;;0.00;0.00;;;;;;;1.31;46.69;102061.50;10484357;28;20322;-70
2022/03/12 02:29:35;;;;;;;0.00;0.00;;;;;;;1.27;46.67;102052.06;10457429;28;20493;-70
2022/03/12 02:34:47;;;;;;;0.00;0.00;;;;;;;1.19;46.80;102048.91;10449311;28;20279;-70
2022/03/12 02:39:48;;;;;;;0.00;0.00;;;;;;;1.24;46.58;102043.47;10453149;28;20086;-70
2022/03/12 02:44:50;;;;;;;0.00;0.00;;;;;;;1.14;47.14;102037.78;10462865;28;20086;-71
2022/03/12 02:49:59;;;;;;;0.10;0.10;;;;;;;1.12;47.16;102047.50;10444926;28;20024;-70
2022/03/12 02:55:00;;;;;;;0.00;0.00;;;;;;;1.11;47.46;102045.81;10466674;28;20032;-70
2022/03/12 03:00:06;;;;;;;0.10;0.10;;;;;;;1.14;46.67;102048.28;10503475;28;20025;-70
2022/03/12 03:05:41;;;;;;;0.10;0.10;;;;;;;1.11;47.03;102048.44;10503694;28;20487;-70
2022/03/12 03:10:43;;;;;;;0.00;0.00;;;;;;;1.02;47.11;102030.44;10443543;28;20017;-70
2022/03/12 03:16:01;;;;;;;0.10;0.10;;;;;;;1.01;47.08;102047.97;10481238;28;20112;-69
2022/03/12 03:21:03;;;;;;;0.00;0.00;;;;;;;0.98;46.83;102036.75;10503651;28;20360;-70
2022/03/12 03:26:04;;;;;;;0.08;0.08;;;;;;;0.95;47.26;102040.38;10481132;28;20112;-70
2022/03/12 03:31:06;;;;;;;0.00;0.00;;;;;;;0.87;47.22;102024.09;10503437;28;20157;-69
2022/03/12 03:36:06;;;;;;;0.10;0.10;;;;;;;0.82;47.34;102041.84;10504026;28;20395;-69
2022/03/12 03:41:07;;;;;;;0.00;0.00;;;;;;;0.77;47.74;102042.03;10502822;28;20036;-71
2022/03/12 03:46:07;;;;;;;0.10;0.10;;;;;;;0.69;47.80;102036.25;10503780;28;20023;-71
2022/03/12 03:51:08;;;;;;;0.10;0.10;;;;;;;0.76;47.22;102042.09;10489700;28;20019;-70
2022/03/12 03:56:08;;;;;;;0.00;0.00;;;;;;;0.67;47.32;102027.63;10476610;28;20066;-70
2022/03/12 04:01:17;;;;;;;0.10;0.10;;;;;;;0.58;47.94;102044.59;10496187;28;20047;-70
2022/03/12 04:06:20;;;;;;;0.10;0.10;;;;;;;0.55;47.79;102046.47;10496022;28;20375;-71
2022/03/12 04:11:22;;;;;;;0.10;0.10;;;;;;;0.48;47.87;102045.88;10495791;28;20099;-70
2022/03/12 04:16:23;;;;;;;0.00;0.00;;;;;;;0.42;48.56;102054.84;10495356;28;20051;-70
2022/03/12 04:21:23;;;;;;;0.10;0.10;;;;;;;0.38;48.66;102055.06;10474826;28;20100;-70
2022/03/12 04:26:23;;;;;;;0.00;0.00;;;;;;;0.29;48.96;102064.16;10484532;28;20312;-71
2022/03/12 04:31:24;;;;;;;0.10;0.10;;;;;;;0.23;49.52;102064.38;10494021;28;20664;-70
2022/03/12 04:36:25;;;;;;;0.00;0.00;;;;;;;0.21;49.04;102074.09;10495015;28;20309;-70
2022/03/12 04:41:32;;;;;;;0.03;0.03;;;;;;;0.11;49.60;102070.97;10476150;28;20046;-71
2022/03/12 04:46:33;;;;;;;0.00;0.00;;;;;;;0.10;49.28;102076.28;10494500;28;20463;-72
2022/03/12 04:51:34;;;;;;;0.10;0.10;;;;;;;0.07;49.19;102076.41;10493918;28;20012;-70
2022/03/12 04:56:34;;;;;;;0.10;0.10;;;;;;;-0.02;49.20;102064.53;10486865;28;20475;-70
2022/03/12 05:01:34;;;;;;;0.10;0.10;;;;;;;-0.03;48.94;102068.91;10465338;28;20029;-70
2022/03/12 05:06:35;;;;;;;0.10;0.10;;;;;;;-0.04;49.01;102061.94;10452313;28;20028;-70
2022/03/12 05:11:38;;;;;;;0.10;0.10;;;;;;;-0.12;49.47;102048.31;10452218;28;20487;-69
2022/03/12 05:16:38;;;;;;;0.10;0.10;;;;;;;-0.14;50.01;102052.78;10451932;28;20465;-70
2022/03/12 05:21:39;;;;;;;0.10;0.10;;;;;;;-0.15;48.99;102055.44;10452650;28;20486;-70
2022/03/12 05:26:39;;;;;;;0.10;0.10;;;;;;;-0.15;49.05;102058.91;10477668;28;20025;-70
2022/03/12 05:31:39;;;;;;;0.08;0.08;;;;;;;-0.15;49.04;102053.66;10474342;28;20023;-70
2022/03/12 05:36:40;;;;;;;0.00;0.00;;;;;;;-0.10;48.36;102051.72;10466737;28;20062;-70
2022/03/12 05:41:41;;;;;;;0.10;0.10;;;;;;;-0.09;47.95;102063.03;10450626;28;20291;-70
2022/03/12 05:51:51;;;;;;;0.10;0.10;;;;;;;0.01;47.59;102071.41;10415571;28;20060;-70
2022/03/12 05:56:51;;;;;;;0.10;0.10;;;;;;;0.33;47.35;102077.97;10426083;28;20368;-72
2022/03/12 06:01:52;;;;;;;0.00;0.00;;;;;;;1.09;44.78;102076.50;10429659;28;20564;-72
2022/03/12 06:06:55;;;;;;;0.00;0.00;;;;;;;1.70;43.69;102068.47;10439965;28;20078;-71
2022/03/12 06:11:58;;;;;;;0.00;0.00;;;;;;;2.28;42.09;102070.09;10422623;28;20147;-72
2022/03/12 06:16:58;;;;;;;0.00;0.00;;;;;;;2.62;41.01;102087.69;10423494;28;20025;-70
2022/03/12 06:21:59;;;;;;;0.00;0.00;;;;;;;3.07;40.75;102099.41;10409644;28;20017;-70
2022/03/12 06:26:59;;;;;;;0.00;0.00;;;;;;;3.62;39.66;102107.03;10429547;28;20025;-69
2022/03/12 06:31:59;;;;;;;0.00;0.00;;;;;;;3.88;39.15;102125.00;10427434;28;20256;-69
2022/03/12 06:37:00;;;;;;;0.00;0.00;;;;;;;4.33;38.78;102121.59;10434037;28;20208;-69
2022/03/12 06:42:01;;;;;;;0.00;0.00;;;;;;;4.78;37.88;102125.16;10410805;28;20047;-69
2022/03/12 06:47:06;;;;;;;0.00;0.00;;;;;;;5.19;36.99;102116.56;10411803;28;20624;-69
2022/03/12 06:52:07;;;;;;;0.00;0.00;;;;;;;5.12;35.84;102118.75;10438485;28;20024;-70
2022/03/12 06:57:07;;;;;;;0.15;0.15;;;;;;;5.25;36.56;102123.28;10433080;28;20112;-69
2022/03/12 07:02:08;;;;;;;0.00;0.00;;;;;;;5.84;35.96;102134.59;10423055;28;20068;-69
2022/03/12 07:07:08;;;;;;;0.00;0.00;;;;;;;6.06;35.09;102140.25;10415568;28;20124;-69
2022/03/12 07:12:11;;;;;;;0.00;0.00;;;;;;;6.46;34.73;102142.16;10408787;28;20068;-69
2022/03/12 07:17:11;;;;;;;0.00;0.00;;;;;;;6.58;34.16;102133.38;10410422;28;20267;-69
2022/03/12 07:22:11;;;;;;;0.00;0.00;;;;;;;6.61;33.61;102135.84;10420680;28;20021;-69
2022/03/12 07:27:12;;;;;;;0.00;0.00;;;;;;;6.47;33.47;102146.47;10416517;28;20040;-70
2022/03/12 07:32:13;;;;;;;0.10;0.10;;;;;;;5.42;34.60;102133.66;10415445;28;20079;-70
2022/03/12 07:37:13;;;;;;;0.10;0.10;;;;;;;5.02;36.26;102138.69;10416286;28;20231;-70
2022/03/12 07:42:14;;;;;;;0.00;0.00;;;;;;;3.97;37.37;102142.97;10415762;28;20028;-70
2022/03/12 07:47:14;;;;;;;0.00;0.00;;;;;;;3.40;38.76;102144.22;10413961;28;20342;-70
2022/03/12 07:52:15;;;;;;;0.00;0.00;;;;;;;3.14;40.46;102145.59;10418031;28;20060;-70
2022/03/12 07:57:16;;;;;;;0.00;0.00;;;;;;;3.00;40.04;102150.69;10415496;28;20472;-70
2022/03/12 08:02:16;;;;;;;0.00;0.00;;;;;;;3.02;41.66;102161.13;10415536;28;20032;-70
2022/03/12 08:07:16;;;;;;;0.00;0.00;;;;;;;3.09;41.15;102152.84;10414956;28;20025;-70
2022/03/12 08:12:17;;;;;;;0.00;0.00;;;;;;;3.22;40.89;102166.22;10410266;28;20022;-70
2022/03/12 08:17:19;;;;;;;0.00;0.00;;;;;;;3.39;41.46;102165.38;10414412;28;20271;-70
2022/03/12 08:22:20;;;;;;;0.00;0.00;;;;;;;3.38;40.73;102167.16;10414355;28;20025;-70
2022/03/12 08:27:21;;;;;;;0.00;0.00;;;;;;;3.60;40.65;102168.66;10414360;28;20594;-70
2022/03/12 08:32:21;;;;;;;0.00;0.00;;;;;;;4.03;39.90;102175.09;10414203;28;20018;-69
2022/03/12 08:37:21;;;;;;;0.00;0.00;;;;;;;4.45;40.37;102173.69;10413290;28;20396;-70
2022/03/12 08:42:24;;;;;;;0.00;0.00;;;;;;;4.78;38.38;102167.41;10413381;28;20018;-70
2022/03/12 08:47:24;;;;;;;0.00;0.00;;;;;;;4.99;37.69;102175.84;10412258;28;20044;-70
2022/03/12 08:52:25;;;;;;;0.00;0.00;;;;;;;5.24;37.96;102171.78;10413309;28;20032;-70
2022/03/12 08:57:25;;;;;;;0.00;0.00;;;;;;;5.77;36.10;102176.44;10412706;28;20028;-70
2022/03/12 09:02:28;;;;;;;0.00;0.00;;;;;;;5.73;36.12;102179.34;10413615;28;20035;-70
2022/03/12 09:07:28;;;;;;;0.10;0.10;;;;;;;5.73;36.02;102176.69;10413618;28;20279;-70
2022/03/12 09:12:28;;;;;;;0.00;0.00;;;;;;;5.77;35.39;102165.84;10413223;28;20018;-70
2022/03/12 09:17:29;;;;;;;0.00;0.00;;;;;;;5.85;34.79;102165.38;10412764;28;20131;-70
2022/03/12 09:22:29;;;;;;;0.00;0.00;;;;;;;5.86;34.70;102167.94;10411101;28;20028;-70
2022/03/12 09:27:29;;;;;;;0.00;0.00;;;;;;;6.17;35.68;102157.22;10412921;28;20071;-70
2022/03/12 09:32:30;;;;;;;0.00;0.00;;;;;;;6.38;34.04;102165.59;10412289;28;20577;-70
2022/03/12 09:37:30;;;;;;;0.00;0.00;;;;;;;6.50;33.80;102173.59;10412463;28;20037;-70
2022/03/12 09:42:30;;;;;;;0.00;0.00;;;;;;;6.69;34.61;102157.38;10411733;28;20028;-70
2022/03/12 09:47:31;;;;;;;0.00;0.00;;;;;;;6.70;33.46;102152.91;10408657;28;20279;-70
2022/03/12 09:52:32;;;;;;;0.00;0.00;;;;;;;6.97;34.82;102153.69;10411543;28;20022;-70
2022/03/12 09:57:34;;;;;;;0.00;0.00;;;;;;;6.78;33.74;102148.81;10411654;28;20044;-70
2022/03/12 10:02:34;;;;;;;0.00;0.00;;;;;;;6.85;33.84;102153.69;10409870;28;20079;-70
2022/03/12 10:07:35;;;;;;;0.00;0.00;;;;;;;7.13;33.29;102132.34;10411266;28;20025;-70
2022/03/12 10:12:35;;;;;;;0.00;0.00;;;;;;;7.12;33.42;102130.63;10410691;28;20260;-71
2022/03/12 10:17:35;;;;;;;0.00;0.00;;;;;;;7.25;34.69;102123.53;10410192;28;20388;-71
2022/03/12 10:22:37;;;;;;;0.00;0.00;;;;;;;7.63;33.78;102127.97;10410495;28;20361;-70
2022/03/12 10:27:38;;;;;;;0.00;0.00;;;;;;;7.78;33.11;102122.53;10410899;28;20043;-71
2022/03/12 10:32:45;;;;;;;0.00;0.00;;;;;;;7.89;34.08;102118.16;10418847;28;20017;-70
2022/03/12 10:37:47;;;;;;;0.00;0.00;;;;;;;7.72;32.62;102118.50;10423759;28;20041;-72
2022/03/12 10:42:47;;;;;;;0.00;0.00;;;;;;;7.80;33.23;102120.63;10422447;28;20370;-72
2022/03/12 10:47:50;;;;;;;0.00;0.00;;;;;;;7.76;33.42;102119.13;10422156;28;20037;-71
2022/03/12 10:52:53;;;;;;;0.00;0.00;;;;;;;7.70;33.21;102115.94;10420257;28;20070;-71
2022/03/12 10:57:57;;;;;;;0.00;0.00;;;;;;;7.74;33.75;102110.44;10433503;28;20028;-71
2022/03/12 11:03:00;;;;;;;0.00;0.00;;;;;;;7.89;34.15;102117.31;10433467;28;20017;-71
2022/03/12 11:08:15;;;;;;;0.10;0.10;;;;;;;8.04;33.83;102120.66;10439660;28;20029;-72
2022/03/12 11:13:29;;;;;;;0.00;0.00;;;;;;;8.10;34.69;102105.13;10428696;28;20025;-73
2022/03/12 11:18:29;;;;;;;0.00;0.00;;;;;;;8.13;34.35;102096.94;10440302;28;20024;-72
2022/03/12 11:23:31;;;;;;;0.00;0.00;;;;;;;8.20;34.92;102085.88;10441767;28;20025;-72
2022/03/12 11:28:32;;;;;;;0.00;0.00;;;;;;;8.28;34.05;102102.94;10416720;28;20048;-72
2022/03/12 11:33:32;;;;;;;0.00;0.00;;;;;;;8.41;35.64;102092.31;10415342;28;20029;-72
2022/03/12 11:38:33;;;;;;;0.10;0.10;;;;;;;8.56;33.97;102091.16;10416873;28;20025;-72
2022/03/12 11:43:39;;;;;;;0.00;0.00;;;;;;;8.73;34.28;102099.66;10416445;28;20027;-72
2022/03/12 11:48:41;;;;;;;0.00;0.00;;;;;;;8.83;33.83;102079.41;10433714;22;20054;-88
2022/03/12 11:53:43;;;;;;;0.00;0.00;;;;;;;8.96;34.65;102088.13;10416392;28;20100;-88
2022/03/12 11:58:45;;;;;;;0.10;0.10;;;;;;;9.01;36.16;102072.66;10430649;28;20393;-88
2022/03/12 12:03:50;;;;;;;0.10;0.10;;;;;;;9.12;34.88;102084.28;10414480;28;20033;-88
2022/03/12 12:08:51;;;;;;;0.03;0.03;;;;;;;9.02;33.77;102073.53;10413703;28;20037;-88
2022/03/12 12:13:53;;;;;;;0.10;0.10;;;;;;;9.12;35.41;102079.81;10409353;28;20518;-89
2022/03/12 12:18:53;;;;;;;0.10;0.10;;;;;;;9.19;34.58;102066.88;10355212;28;20105;-88
2022/03/12 12:23:54;;;;;;;0.10;0.10;;;;;;;9.34;33.73;102078.13;10350666;28;20046;-89
2022/03/12 12:28:55;;;;;;;0.10;0.10;;;;;;;9.43;34.22;102069.44;10334355;28;20018;-87
2022/03/12 12:33:56;;;;;;;0.10;0.10;;;;;;;9.60;35.49;102084.91;10332972;28;20076;-89
2022/03/12 12:39:10;;;;;;;0.05;0.05;;;;;;;9.63;34.54;102074.03;10330529;28;20030;-89
2022/03/12 12:44:10;;;;;;;0.10;0.10;;;;;;;9.71;34.14;102068.06;10355778;28;20105;-88
2022/03/12 12:49:14;;;;;;;0.00;0.00;;;;;;;9.85;34.91;102072.28;10341031;28;20037;-88
2022/03/12 12:54:14;;;;;;;0.10;0.10;;;;;;;9.91;34.94;102077.97;10334271;28;20034;-88
2022/03/12 12:59:15;;;;;;;0.10;0.10;;;;;;;9.82;32.99;102073.38;10333311;28;20022;-89
2022/03/12 13:04:15;;;;;;;0.10;0.10;;;;;;;10.00;35.18;102072.88;10334305;28;20046;-89
2022/03/12 13:09:19;;;;;;;0.00;0.00;;;;;;;10.13;33.74;102068.25;10333294;28;20030;-88
2022/03/12 13:14:24;;;;;;;0.00;0.00;;;;;;;10.15;33.63;102063.63;10338197;28;20017;-89
2022/03/12 13:19:30;;;;;;;0.00;0.00;;;;;;;10.32;34.43;102059.59;10389800;28;20058;-89
2022/03/12 13:25:03;;;;;;;0.10;0.10;;;;;;;10.32;33.39;102054.28;10407527;28;20029;-88
2022/03/12 13:30:16;;;;;;;0.10;0.10;;;;;;;10.36;33.73;102047.72;10358842;28;20034;-89
2022/03/12 13:35:28;;;;;;;0.10;0.10;;;;;;;10.40;34.72;102047.34;10376788;28;20029;-89
2022/03/12 13:40:30;;;;;;;0.10;0.10;;;;;;;10.46;33.56;102045.13;10379044;28;20026;-89
2022/03/12 13:45:32;;;;;;;0.00;0.00;;;;;;;10.42;33.64;102045.38;10389745;28;20058;-90
2022/03/12 13:50:32;;;;;;;0.08;0.08;;;;;;;10.47;34.15;102053.00;10378996;28;20021;-88
2022/03/12 13:55:34;;;;;;;0.00;0.00;;;;;;;10.54;34.50;102046.19;10389702;28;20057;-88
2022/03/12 14:00:36;;;;;;;0.10;0.10;;;;;;;10.68;33.98;102054.84;10380127;28;20097;-88
2022/03/12 14:05:38;;;;;;;0.10;0.10;;;;;;;10.65;33.88;102059.44;10375224;28;20029;-88
2022/03/12 14:10:45;;;;;;;0.08;0.08;;;;;;;10.67;34.14;102069.97;10393858;28;20021;-88
2022/03/12 14:15:46;;;;;;;0.00;0.00;;;;;;;10.70;34.21;102064.38;10376449;28;20510;-88
2022/03/12 14:20:49;;;;;;;0.10;0.10;;;;;;;10.73;34.53;102064.09;10376238;28;20036;-87
2022/03/12 14:25:50;;;;;;;0.10;0.10;;;;;;;10.72;34.45;102058.94;10376232;28;20072;-88
2022/03/12 14:30:50;;;;;;;0.10;0.10;;;;;;;10.74;35.55;102049.81;10385829;28;20531;-88
2022/03/12 14:35:51;;;;;;;0.00;0.00;;;;;;;10.78;34.69;102051.25;10387195;28;20333;-87
2022/03/12 14:40:51;;;;;;;0.10;0.10;;;;;;;10.80;34.89;102049.31;10367555;28;20022;-87
2022/03/12 14:45:51;;;;;;;0.00;0.00;;;;;;;10.80;34.58;102056.47;10360319;28;20159;-87
2022/03/12 14:50:58;;;;;;;0.10;0.10;;;;;;;10.76;34.24;102047.88;10402749;28;20025;-88
2022/03/12 14:55:59;;;;;;;0.10;0.10;;;;;;;10.70;33.87;102039.53;10380168;28;20037;-87
2022/03/12 15:00:59;;;;;;;0.10;0.10;;;;;;;10.69;35.04;102045.88;10385669;28;20028;-87
2022/03/12 15:06:01;;;;;;;0.00;0.00;;;;;;;10.69;34.83;102041.38;10366403;28;20109;-89
2022/03/12 15:11:08;;;;;;;0.10;0.10;;;;;;;10.68;34.15;102050.34;10365105;28;20121;-88
2022/03/12 15:16:26;;;;;;;0.10;0.10;;;;;;;10.67;33.83;102045.97;10354845;28;20054;-87
2022/03/12 15:21:26;;;;;;;0.10;0.10;;;;;;;10.64;35.17;102048.91;10327810;28;20122;-87
2022/03/12 15:26:26;;;;;;;0.10;0.10;;;;;;;10.62;33.97;102041.06;10329252;28;20033;-87
2022/03/12 15:31:27;;;;;;;0.00;0.00;;;;;;;10.56;34.27;102035.38;10343904;28;20023;-88
2022/03/12 15:36:34;;;;;;;0.10;0.10;;;;;;;10.46;35.29;102035.31;10327704;28;20061;-88
2022/03/12 15:41:34;;;;;;;0.00;0.00;;;;;;;10.26;35.81;102041.44;10327254;28;20368;-88
2022/03/12 15:46:35;;;;;;;0.10;0.10;;;;;;;10.07;36.71;102045.63;10353284;28;20053;-88
2022/03/12 15:51:36;;;;;;;0.10;0.10;;;;;;;9.91;37.45;102051.34;10371918;28;20049;-88
2022/03/12 15:56:37;;;;;;;0.10;0.10;;;;;;;9.81;37.14;102053.06;10390149;28;20032;-88
2022/03/12 16:01:38;;;;;;;0.00;0.00;;;;;;;9.69;37.17;102054.06;10387375;28;20048;-88
2022/03/12 16:06:39;;;;;;;0.10;0.10;;;;;;;9.63;37.96;102057.19;10369352;28;20115;-88
2022/03/12 16:11:40;;;;;;;0.10;0.10;;;;;;;9.43;38.99;102059.66;10370422;28;20663;-88
2022/03/12 16:16:42;;;;;;;0.00;0.00;;;;;;;9.21;39.17;102064.97;10351141;28;20471;-88
2022/03/12 16:21:42;;;;;;;0.03;0.03;;;;;;;8.93;39.56;102048.50;10326398;28;20018;-88
2022/03/12 16:26:43;;;;;;;0.10;0.10;;;;;;;8.85;39.49;102061.53;10340913;28;20030;-88
2022/03/12 16:31:53;;;;;;;0.00;0.00;;;;;;;8.63;39.12;102056.16;10324467;28;20015;-88
2022/03/12 16:36:54;;;;;;;0.03;0.03;;;;;;;8.41;39.92;102049.81;10336649;28;20090;-88
2022/03/12 16:41:55;;;;;;;0.10;0.10;;;;;;;8.26;39.71;102059.75;10359450;28;20027;-89
2022/03/12 16:47:02;;;;;;;0.10;0.10;;;;;;;8.16;40.93;102062.22;10365764;28;20366;-87
2022/03/12 16:52:03;;;;;;;0.00;0.00;;;;;;;8.02;39.29;102064.19;10340974;28;1077221;-89
2022/03/12 16:57:14;;;;;;;0.10;0.10;;;;;;;7.85;40.41;102076.91;10375762;28;20049;-87
2022/03/12 17:02:14;;;;;;;0.10;0.10;;;;;;;7.70;40.16;102070.03;10373212;28;20389;-87
2022/03/12 17:07:17;;;;;;;0.00;0.00;;;;;;;7.39;41.46;102050.16;10389223;28;20029;-87
2022/03/12 17:12:17;;;;;;;0.10;0.10;;;;;;;7.32;42.02;102070.09;10372200;28;20026;-88
2022/03/12 17:17:19;;;;;;;0.00;0.00;;;;;;;7.00;41.95;102067.88;10381970;28;20029;-86
2022/03/12 17:22:23;;;;;;;0.00;0.00;;;;;;;6.68;42.07;102065.63;10370274;28;20022;-87
2022/03/12 17:27:24;;;;;;;0.10;0.10;;;;;;;6.59;44.00;102079.47;10402897;28;20093;-87
2022/03/12 17:32:24;;;;;;;0.00;0.00;;;;;;;6.31;45.90;102070.75;10367694;28;20048;-86
2022/03/12 17:37:26;;;;;;;0.00;0.00;;;;;;;5.97;46.51;102077.38;10387774;28;20041;-87
2022/03/12 17:42:27;;;;;;;0.00;0.00;;;;;;;5.85;44.51;102052.53;10402973;28;20112;-87
2022/03/12 17:47:31;;;;;;;0.00;0.00;;;;;;;5.96;44.54;102077.44;10374040;28;20084;-87
2022/03/12 17:52:35;;;;;;;0.00;0.00;;;;;;;5.86;44.62;102079.81;10430320;23;20432;-70
2022/03/12 17:57:36;;;;;;;0.00;0.00;;;;;;;5.69;44.56;102083.53;10451988;28;20535;-70
2022/03/12 18:02:37;;;;;;;0.00;0.00;;;;;;;5.66;44.38;102087.22;10451593;28;20124;-69
2022/03/12 18:07:38;;;;;;;0.00;0.00;;;;;;;5.67;44.10;102093.34;10450860;28;20387;-70
2022/03/12 18:12:38;;;;;;;0.00;0.00;;;;;;;5.64;43.20;102098.81;10451315;28;20024;-70
2022/03/12 18:17:42;;;;;;;0.00;0.00;;;;;;;5.68;42.59;102097.69;10451840;28;20100;-70
2022/03/12 18:22:44;;;;;;;0.00;0.00;;;;;;;5.68;43.34;102095.91;10485482;28;20289;-70
2022/03/12 18:27:44;;;;;;;0.00;0.00;;;;;;;5.70;43.06;102093.13;10476687;28;20075;-70
2022/03/12 18:32:47;;;;;;;0.00;0.00;;;;;;;5.67;43.46;102090.69;10492099;28;20059;-69
2022/03/12 18:37:47;;;;;;;0.00;0.00;;;;;;;5.75;43.27;102096.34;10492556;28;20024;-70
2022/03/12 18:42:51;;;;;;;0.00;0.00;;;;;;;5.94;42.00;102092.59;10491751;28;20074;-70
2022/03/12 18:47:52;;;;;;;0.00;0.00;;;;;;;6.14;40.47;102086.88;10474291;28;20479;-70
2022/03/12 18:52:52;;;;;;;0.00;0.00;;;;;;;6.35;38.64;102087.25;10491225;28;20028;-69
2022/03/12 18:57:53;;;;;;;0.00;0.00;;;;;;;6.50;38.93;102080.94;10492108;28;20021;-69
2022/03/12 19:02:54;;;;;;;0.00;0.00;;;;;;;6.48;38.47;102087.28;10491580;28;20025;-70
2022/03/12 19:07:55;;;;;;;0.00;0.00;;;;;;;6.45;38.70;102087.50;10491634;28;20036;-71
2022/03/12 19:12:55;;;;;;;0.00;0.00;;;;;;;6.43;38.03;102081.44;10473201;28;20020;-70
2022/03/12 19:17:56;;;;;;;0.00;0.00;;;;;;;6.41;37.62;102083.34;10493170;28;20421;-70
2022/03/12 19:22:57;;;;;;;0.00;0.00;;;;;;;6.49;36.94;102078.41;10461665;28;20762;-70
2022/03/12 19:27:58;;;;;;;0.00;0.00;;;;;;;6.53;37.19;102079.91;10458475;28;20307;-70
2022/03/12 19:32:58;;;;;;;0.00;0.00;;;;;;;6.41;37.17;102083.34;10439503;28;20025;-70
2022/03/12 19:37:59;;;;;;;0.00;0.00;;;;;;;6.19;37.95;102086.56;10457637;28;20024;-70
2022/03/12 19:43:00;;;;;;;0.00;0.00;;;;;;;5.99;38.79;102088.72;10457034;28;20033;-70
2022/03/12 19:48:00;;;;;;;0.00;0.00;;;;;;;5.71;39.57;102094.88;10457102;28;20017;-70
2022/03/12 19:53:01;;;;;;;0.00;0.00;;;;;;;5.53;40.56;102093.38;10456083;28;20112;-70
2022/03/12 19:58:01;;;;;;;0.00;0.00;;;;;;;5.25;42.06;102096.84;10456662;28;20036;-70
2022/03/12 20:03:04;;;;;;;0.00;0.00;;;;;;;4.97;43.07;102091.47;10456658;28;20017;-70
2022/03/12 20:08:05;;;;;;;0.00;0.00;;;;;;;4.85;43.80;102084.25;10438952;28;20383;-70
2022/03/12 20:13:05;;;;;;;0.00;0.00;;;;;;;4.68;44.75;102082.63;10456126;28;20023;-70
2022/03/12 20:18:07;;;;;;;0.00;0.00;;;;;;;4.29;46.88;102089.25;10456138;28;20025;-70
2022/03/12 20:23:07;;;;;;;0.00;0.00;;;;;;;3.88;49.82;102088.13;10437287;28;20114;-70
2022/03/12 20:28:08;;;;;;;0.00;0.00;;;;;;;3.43;51.61;102081.75;10455704;28;20130;-71
2022/03/12 20:33:09;;;;;;;0.00;0.00;;;;;;;3.26;49.87;102077.38;10436382;28;20110;-69
2022/03/12 20:38:10;;;;;;;0.00;0.00;;;;;;;3.44;47.77;102081.69;10455324;28;20537;-69
2022/03/12 20:43:10;;;;;;;0.00;0.00;;;;;;;3.81;44.87;102080.53;10454841;28;20025;-69
2022/03/12 20:48:11;;;;;;;0.00;0.00;;;;;;;4.44;43.34;102079.59;10454939;28;20335;-69
2022/03/12 20:53:14;;;;;;;0.00;0.00;;;;;;;4.97;40.40;102078.25;10476333;28;20475;-69
2022/03/12 20:58:16;;;;;;;0.00;0.00;;;;;;;5.33;39.50;102066.38;10456804;28;20032;-69
2022/03/12 21:03:17;;;;;;;0.00;0.00;;;;;;;5.54;38.97;102066.00;10439372;28;20013;-69
2022/03/12 21:08:17;;;;;;;0.00;0.00;;;;;;;5.67;38.09;102061.63;10447002;28;20031;-70
2022/03/12 21:13:18;;;;;;;0.00;0.00;;;;;;;5.65;37.97;102058.25;10453789;28;20070;-70
2022/03/12 21:18:19;;;;;;;0.00;0.00;;;;;;;5.65;37.92;102052.94;10453640;28;20295;-69
2022/03/12 21:23:21;;;;;;;0.00;0.00;;;;;;;5.64;38.09;102052.13;10452786;28;20037;-69
2022/03/12 21:28:21;;;;;;;0.00;0.00;;;;;;;5.57;37.80;102044.66;10446684;28;20283;-70
2022/03/12 21:33:21;;;;;;;0.00;0.00;;;;;;;5.54;39.02;102050.13;10445393;28;20467;-70
2022/03/12 21:38:22;;;;;;;0.00;0.00;;;;;;;5.37;39.20;102037.97;10413461;28;20017;-70
2022/03/12 21:43:26;;;;;;;0.00;0.00;;;;;;;5.20;39.11;102039.84;10395043;28;20116;-70
2022/03/12 21:48:26;;;;;;;0.00;0.00;;;;;;;5.07;39.91;102027.53;10419591;28;20491;-70
2022/03/12 21:53:27;;;;;;;0.00;0.00;;;;;;;5.01;39.87;102017.34;10398510;28;20043;-70
2022/03/12 21:58:30;;;;;;;0.00;0.00;;;;;;;4.94;39.69;102022.97;10428452;28;20078;-69
2022/03/12 22:03:30;;;;;;;0.00;0.00;;;;;;;4.96;39.70;102023.72;10434024;28;20108;-69
2022/03/12 22:08:31;;;;;;;0.00;0.00;;;;;;;5.03;39.31;102018.06;10420783;28;20078;-70
2022/03/12 22:13:31;;;;;;;0.00;0.00;;;;;;;5.06;38.83;102009.97;10443648;28;20025;-70
2022/03/12 22:18:32;;;;;;;0.00;0.00;;;;;;;5.05;38.88;101995.06;10437003;28;20498;-70
2022/03/12 22:23:32;;;;;;;0.00;0.00;;;;;;;4.98;38.90;101994.59;10428960;28;20107;-70
2022/03/12 22:28:32;;;;;;;0.00;0.00;;;;;;;4.94;39.09;101998.34;10430692;28;20267;-70
2022/03/12 22:33:34;;;;;;;0.00;0.00;;;;;;;4.90;39.29;101995.06;10422756;28;20104;-70
2022/03/12 22:38:36;;;;;;;0.00;0.00;;;;;;;4.78;39.86;101998.47;10422122;28;20315;-70
2022/03/12 22:43:37;;;;;;;0.00;0.00;;;;;;;4.59;40.12;101990.78;10413326;28;20033;-70
2022/03/12 22:48:37;;;;;;;0.00;0.00;;;;;;;4.52;39.93;101995.59;10431124;28;20048;-70
2022/03/12 22:53:37;;;;;;;0.00;0.00;;;;;;;4.41;41.31;101984.81;10438205;28;20505;-70
2022/03/12 22:58:38;;;;;;;0.00;0.00;;;;;;;4.37;40.86;101993.03;10455440;28;20384;-70
2022/03/12 23:09:02;;;;;;;0.00;0.00;;;;;;;4.27;41.47;101987.41;10459004;28;20033;-70
2022/03/12 23:14:06;;;;;;;0.00;0.00;;;;;;;4.17;41.30;101983.63;10458407;28;20017;-70
2022/03/12 23:19:09;;;;;;;0.00;0.00;;;;;;;4.12;41.68;101980.41;10457862;28;20031;-70
2022/03/12 23:24:10;;;;;;;0.00;0.00;;;;;;;4.06;41.57;101974.53;10457724;28;20056;-69
2022/03/12 23:29:12;;;;;;;0.00;0.00;;;;;;;4.04;41.41;101976.44;10457907;28;20104;-70
2022/03/12 23:34:12;;;;;;;0.00;0.00;;;;;;;3.93;42.05;101989.38;10455533;28;20465;-70